Sunday, July 22, 2018, 1:51 AM CDT
Back to Local

KEMP, Emporia Municipal Airport

Location: Emporia, KS, United States Lat: 38.333
Local Time: 1:51 AM CDT ( 6:51 GMT) Lon: -96.2
Time Zone: US/Central Elev: 1207 ft

Show me the last for .
Show Decoded

2018-07-22 00:53 METAR KEMP 220553Z AUTO 00000KT 10SM CLR 22/17 A3002 RMK AO2 SLP154 T02220167
                 10333 20222 403560183 53012 =
2018-07-21 23:53 METAR KEMP 220453Z AUTO 06006KT 10SM CLR 23/16 A3000 RMK AO2 SLP147 T02330156 =
2018-07-21 22:53 METAR KEMP 220353Z AUTO 05006KT 10SM CLR 24/14 A3000 RMK AO2 SLP146 T02390144 =
2018-07-21 21:53 METAR KEMP 220253Z AUTO 04006KT 10SM CLR 26/14 A2998 RMK AO2 SLP142 T02560144
                 53004 =
2018-07-21 20:53 METAR KEMP 220153Z AUTO 04005KT 10SM CLR 27/13 A2997 RMK AO2 SLP138 T02720133 =
2018-07-21 19:53 METAR KEMP 220053Z AUTO 36005KT 10SM CLR 31/15 A2997 RMK AO2 SLP136 T03110150 =
2018-07-21 18:53 METAR KEMP 212353Z AUTO 01007KT 10SM CLR 33/14 A2997 RMK AO2 SLP137 T03330144
                 10356 20306 56007 =
2018-07-21 17:53 METAR KEMP 212253Z AUTO 01009KT 10SM CLR 34/14 A2998 RMK AO2 SLP139 T03440144 =
2018-07-21 16:53 METAR KEMP 212153Z AUTO 01007KT 10SM CLR 35/16 A2998 RMK AO2 SLP141 T03500156 =
2018-07-21 15:53 METAR KEMP 212053Z AUTO 10SM CLR 35/16 A2999 RMK AO2 SLP143 T03500156 57012 =
2018-07-21 14:53 METAR KEMP 211953Z AUTO VRB06G15KT 10SM CLR 34/16 A3000 RMK AO2 SLP147 T03440156
                 =
2018-07-21 13:53 METAR KEMP 211853Z AUTO 36007KT 330V040 10SM CLR 33/17 A3002 RMK AO2 SLP152
                 T03330167 =
2018-07-21 12:53 METAR KEMP 211753Z AUTO 00000KT 10SM CLR 31/17 A3003 RMK AO2 SLP157 T03110172
                 10322 20200 58007 =
2018-07-21 11:53 METAR KEMP 211653Z AUTO 04010G15KT 10SM CLR 31/17 A3004 RMK AO2 SLP162 T03110167
                 =
2018-07-21 10:53 METAR KEMP 211553Z AUTO 10008G16KT 10SM CLR 29/17 A3005 RMK AO2 SLP163 T02940167
                 =
2018-07-21 09:53 METAR KEMP 211453Z AUTO 06008KT 10SM CLR 28/18 A3005 RMK AO2 SLP164 T02780178
                 51022 =
2018-07-21 08:53 METAR KEMP 211353Z AUTO VRB03KT 10SM CLR 24/19 A3004 RMK AO2 SLP160 T02440189 =
2018-07-21 07:53 METAR KEMP 211253Z AUTO 07004KT 10SM CLR 22/18 A3002 RMK AO2 SLP153 T02220183 =
2018-07-21 06:53 METAR KEMP 211153Z AUTO 04006KT 10SM CLR 20/18 A2998 RMK AO2 SLP141 T02000178
                 10233 20183 56005 =
2018-07-21 05:53 METAR KEMP 211053Z AUTO 04007KT 10SM CLR 19/17 A2999 RMK AO2 SLP144 T01890172 =
2018-07-21 04:53 METAR KEMP 210953Z AUTO 00000KT 10SM CLR 19/17 A2999 RMK AO2 SLP146 T01940172 =
2018-07-21 03:53 METAR KEMP 210853Z AUTO 00000KT 10SM CLR 21/18 A3000 RMK AO2 SLP146 T02060178
                 52003 =
2018-07-21 02:53 METAR KEMP 210753Z AUTO 02005KT 10SM SCT120 22/18 A2999 RMK AO2 SLP144 T02170183
                 =
2018-07-21 01:53 METAR KEMP 210653Z AUTO 03003KT 10SM CLR 22/18 A3000 RMK AO2 SLP145 T02220178 =

Support USWX by starting your Amazon purchase here.